Time;durP1;ratioP1;P1;durP2;ratioP2;P2;SDS_P1;SDS_P2;PMS_P1;PMS_P2;Temp;Humidity;BMP_temperature;BMP_pressure;BME280_temperature;BME280_humidity;BME280_pressure;Samples;Min_cycle;Max_cycle;Signal;HPM_P1;HPM_P2
2024/02/06 00:00:26;;;;;;;9.65;5.43;;;4.40;67.00;;;;;;5087920;28;20692;-72
2024/02/06 00:02:52;;;;;;;11.68;5.97;;;4.40;66.60;;;;;;5094035;28;20032;-72
2024/02/06 00:05:18;;;;;;;10.38;4.85;;;4.40;66.50;;;;;;5093606;28;20040;-72
2024/02/06 00:07:44;;;;;;;8.70;4.40;;;4.30;66.40;;;;;;5073580;28;20029;-71
2024/02/06 00:10:11;;;;;;;4.68;2.90;;;4.30;67.30;;;;;;5072345;28;20040;-71
2024/02/06 00:12:37;;;;;;;4.63;2.25;;;4.20;66.60;;;;;;5073222;28;20099;-71
2024/02/06 00:15:03;;;;;;;6.85;2.65;;;4.20;66.70;;;;;;5072079;28;20045;-71
2024/02/06 00:17:29;;;;;;;13.15;4.35;;;4.10;66.20;;;;;;5075985;28;20114;-73
2024/02/06 00:19:55;;;;;;;9.20;4.47;;;4.10;67.10;;;;;;5092072;28;20444;-71
2024/02/06 00:22:21;;;;;;;30.60;6.03;;;4.10;67.30;;;;;;5091335;28;20054;-70
2024/02/06 00:27:32;;;;;;;9.60;4.40;;;4.00;67.20;;;;;;5082865;28;20083;-71
2024/02/06 00:29:58;;;;;;;9.05;4.63;;;4.00;67.30;;;;;;5072067;28;20458;-71
2024/02/06 00:32:24;;;;;;;9.25;4.18;;;4.00;67.30;;;;;;5072013;28;20037;-71
2024/02/06 00:34:52;;;;;;;12.85;6.15;;;4.00;67.60;;;;;;5072512;28;20081;-71
2024/02/06 00:37:19;;;;;;;7.03;4.30;;;3.90;67.40;;;;;;5087490;28;20043;-71
2024/02/06 00:39:45;;;;;;;3.92;2.08;;;3.90;67.50;;;;;;5092928;28;20031;-71
2024/02/06 00:42:11;;;;;;;8.93;2.72;;;3.80;67.70;;;;;;5063745;28;20037;-71
2024/02/06 00:44:40;;;;;;;4.22;2.20;;;3.70;68.20;;;;;;5071766;28;20413;-71
2024/02/06 00:47:08;;;;;;;4.10;1.98;;;3.70;68.10;;;;;;5071389;28;20035;-71
2024/02/06 00:49:35;;;;;;;8.60;2.95;;;3.70;68.40;;;;;;5071261;28;20585;-71
2024/02/06 00:52:02;;;;;;;5.22;2.30;;;3.60;68.40;;;;;;5085824;28;20484;-71
2024/02/06 00:54:28;;;;;;;4.30;2.50;;;3.60;68.20;;;;;;5075121;28;20576;-71
2024/02/06 00:56:54;;;;;;;4.57;2.22;;;3.60;69.70;;;;;;5091313;28;20036;-71
2024/02/06 00:59:20;;;;;;;3.45;1.75;;;3.60;68.80;;;;;;5072658;28;20028;-72
2024/02/06 01:01:47;;;;;;;2.40;1.45;;;3.60;68.80;;;;;;5072670;28;20046;-71
2024/02/06 01:04:13;;;;;;;4.50;2.28;;;3.60;68.80;;;;;;5072921;28;20086;-73
2024/02/06 01:06:39;;;;;;;3.03;2.00;;;3.60;68.10;;;;;;5071686;28;20090;-71
2024/02/06 01:09:05;;;;;;;6.03;2.80;;;3.60;68.90;;;;;;5075727;28;20507;-72
2024/02/06 01:11:32;;;;;;;2.88;2.08;;;3.60;69.10;;;;;;5090731;28;20489;-72
2024/02/06 01:13:58;;;;;;;1.65;1.45;;;3.60;69.00;;;;;;5093143;28;20400;-72
2024/02/06 01:16:24;;;;;;;7.15;1.88;;;3.60;69.10;;;;;;5091852;28;20048;-72
2024/02/06 01:18:50;;;;;;;4.55;2.28;;;3.50;69.20;;;;;;5083982;28;20082;-72
2024/02/06 01:21:16;;;;;;;3.63;1.77;;;3.50;69.30;;;;;;5070450;28;20048;-72
2024/02/06 01:23:42;;;;;;;6.50;2.83;;;3.50;69.60;;;;;;5070481;28;20064;-73
2024/02/06 01:26:12;;;;;;;9.85;1.70;;;3.50;69.60;;;;;;5071860;28;20075;-72
2024/02/06 01:28:38;;;;;;;2.78;1.90;;;3.50;69.30;;;;;;5081845;28;20122;-72
2024/02/06 01:31:04;;;;;;;6.88;2.95;;;3.50;69.70;;;;;;5090514;28;20043;-72
2024/02/06 01:33:30;;;;;;;;;;;3.50;69.50;;;;;;5093464;28;20538;-72
2024/02/06 01:35:56;;;;;;;5.20;2.47;;;3.50;69.30;;;;;;5092897;28;19923;-71
2024/02/06 01:38:22;;;;;;;3.83;2.13;;;3.40;69.00;;;;;;5058629;28;20123;-71
2024/02/06 01:40:48;;;;;;;4.80;2.47;;;3.40;69.20;;;;;;5070362;28;20044;-71
2024/02/06 01:43:14;;;;;;;6.28;1.98;;;3.40;69.20;;;;;;5072434;28;20036;-72
2024/02/06 01:45:41;;;;;;;3.83;1.75;;;3.40;69.30;;;;;;5073417;28;20032;-72
2024/02/06 01:48:07;;;;;;;;;;;3.30;69.40;;;;;;5090822;28;20043;-71
2024/02/06 01:50:35;;;;;;;5.43;2.53;;;3.30;69.20;;;;;;5090680;28;19965;-72
2024/02/06 01:53:01;;;;;;;5.50;2.83;;;3.30;69.00;;;;;;5074248;28;20028;-71
2024/02/06 01:55:28;;;;;;;8.18;2.53;;;3.30;68.70;;;;;;5087230;28;20528;-72
2024/02/06 01:57:54;;;;;;;6.50;3.40;;;3.30;68.50;;;;;;5069896;28;20036;-72
2024/02/06 02:00:21;;;;;;;7.13;4.57;;;3.30;68.40;;;;;;5069606;28;20045;-71
2024/02/06 02:02:48;;;;;;;8.50;3.80;;;3.30;69.00;;;;;;5053866;28;20028;-72
2024/02/06 02:05:14;;;;;;;3.20;1.77;;;3.30;69.20;;;;;;5077926;28;20054;-71
2024/02/06 02:07:41;;;;;;;4.60;2.13;;;3.20;69.00;;;;;;5074004;28;20024;-71
2024/02/06 02:10:08;;;;;;;6.88;3.03;;;3.20;69.00;;;;;;5091711;28;20040;-71
2024/02/06 02:12:35;;;;;;;7.30;4.00;;;3.20;68.50;;;;;;5090772;28;20082;-72
2024/02/06 02:15:22;;;;;;;3.97;2.25;;;3.20;69.20;;;;;;5079716;28;20037;-72
2024/02/06 02:18:08;;;;;;;4.50;3.08;;;3.10;69.10;;;;;;5071871;28;20028;-72
2024/02/06 02:20:34;;;;;;;6.07;2.80;;;3.10;68.60;;;;;;5069895;28;20036;-72
2024/02/06 02:23:00;;;;;;;5.82;3.22;;;3.10;68.60;;;;;;5072893;28;20028;-72
2024/02/06 02:25:26;;;;;;;10.82;4.13;;;3.00;68.40;;;;;;5071770;28;20094;-72
2024/02/06 02:27:52;;;;;;;;;;;3.00;68.50;;;;;;5072329;28;20090;-72
2024/02/06 02:30:20;;;;;;;9.45;4.55;;;2.90;68.00;;;;;;5052804;28;20053;-72
2024/02/06 02:32:46;;;;;;;7.90;4.20;;;2.90;68.50;;;;;;5075299;28;20485;-72
2024/02/06 02:35:13;;;;;;;5.68;2.63;;;2.90;68.60;;;;;;5090678;28;20419;-72
2024/02/06 02:37:39;;;;;;;3.13;1.45;;;2.80;68.50;;;;;;5091316;28;20358;-71
2024/02/06 02:40:07;;;;;;;5.65;2.75;;;2.80;68.30;;;;;;5089447;28;20032;-71
2024/02/06 02:42:33;;;;;;;3.33;1.67;;;2.70;67.40;;;;;;5079892;28;20105;-72
2024/02/06 02:44:59;;;;;;;5.03;2.65;;;2.70;67.30;;;;;;5071312;28;20044;-72
2024/02/06 02:47:25;;;;;;;5.97;2.17;;;2.70;67.80;;;;;;5069665;28;20036;-72
2024/02/06 02:49:51;;;;;;;6.32;3.03;;;2.60;68.10;;;;;;5070886;28;20029;-72
2024/02/06 02:52:17;;;;;;;7.15;3.45;;;2.60;68.10;;;;;;5081918;28;20099;-72
2024/02/06 02:54:44;;;;;;;4.68;3.08;;;2.70;68.20;;;;;;5089776;28;20028;-72
2024/02/06 02:57:10;;;;;;;3.33;1.88;;;2.70;68.00;;;;;;5089597;28;20036;-72
2024/02/06 02:59:36;;;;;;;16.15;3.30;;;2.70;68.10;;;;;;5089621;28;20074;-71
2024/02/06 03:02:02;;;;;;;5.53;2.45;;;2.60;68.20;;;;;;5073015;28;20048;-71
2024/02/06 03:04:28;;;;;;;2.70;1.50;;;2.60;68.40;;;;;;5070151;28;20059;-71
2024/02/06 03:06:54;;;;;;;4.05;2.40;;;2.60;68.40;;;;;;5053170;28;20154;-71
2024/02/06 03:09:21;;;;;;;4.07;2.08;;;2.50;68.50;;;;;;5074885;28;20025;-71
2024/02/06 03:11:47;;;;;;;2.70;1.70;;;2.50;68.50;;;;;;5073197;28;20053;-71
2024/02/06 03:14:13;;;;;;;5.47;2.55;;;2.50;68.60;;;;;;5073493;28;20024;-71
2024/02/06 03:16:39;;;;;;;4.07;1.95;;;2.50;68.60;;;;;;5072991;28;20029;-72
2024/02/06 03:19:05;;;;;;;;;;;2.40;68.50;;;;;;5079618;28;20032;-72
2024/02/06 03:21:31;;;;;;;5.30;2.40;;;2.40;68.60;;;;;;5094364;28;20001;-72
2024/02/06 03:23:57;;;;;;;3.72;2.58;;;2.40;68.50;;;;;;5094823;28;20060;-72
2024/02/06 03:26:23;;;;;;;2.25;1.65;;;2.40;68.70;;;;;;5094322;28;20066;-71
2024/02/06 03:28:49;;;;;;;3.92;2.13;;;2.40;68.70;;;;;;5066651;28;20114;-72
2024/02/06 03:31:15;;;;;;;2.63;2.22;;;2.40;68.80;;;;;;5072261;28;20440;-72
2024/02/06 03:33:41;;;;;;;3.20;2.17;;;2.40;69.00;;;;;;5074276;28;20058;-72
2024/02/06 03:36:08;;;;;;;2.80;1.48;;;2.40;69.00;;;;;;5074234;28;20045;-72
2024/02/06 03:38:34;;;;;;;2.88;1.33;;;2.40;68.50;;;;;;5086007;28;20047;-72
2024/02/06 03:41:00;;;;;;;2.78;1.52;;;2.40;69.10;;;;;;5093817;28;20044;-71
2024/02/06 03:43:26;;;;;;;2.95;1.25;;;2.40;69.20;;;;;;5092847;28;20035;-71
2024/02/06 03:45:52;;;;;;;2.35;1.27;;;2.40;69.20;;;;;;5093483;28;20048;-72
2024/02/06 03:48:18;;;;;;;2.38;1.40;;;2.40;69.30;;;;;;5077391;28;20043;-72
2024/02/06 03:50:44;;;;;;;7.72;2.22;;;2.40;69.50;;;;;;5073231;28;20082;-72
2024/02/06 03:53:10;;;;;;;6.35;1.60;;;2.40;69.60;;;;;;5072643;28;20033;-71
2024/02/06 03:55:37;;;;;;;5.18;2.33;;;2.30;69.50;;;;;;5073340;28;20050;-72
2024/02/06 03:58:03;;;;;;;3.60;2.10;;;2.30;69.90;;;;;;5093246;28;20081;-71
2024/02/06 04:00:30;;;;;;;4.63;2.95;;;2.30;69.60;;;;;;5092530;28;20481;-72
2024/02/06 04:02:56;;;;;;;3.80;2.22;;;2.30;69.40;;;;;;5094730;28;20028;-72
2024/02/06 04:05:23;;;;;;;3.10;2.38;;;2.40;69.30;;;;;;5087934;28;20060;-71
2024/02/06 04:07:49;;;;;;;;;;;2.30;69.40;;;;;;5073423;28;20040;-72
2024/02/06 04:10:15;;;;;;;4.25;2.00;;;2.30;69.50;;;;;;5073453;28;20004;-72
2024/02/06 04:12:43;;;;;;;3.75;2.33;;;2.30;69.60;;;;;;5074132;28;20052;-71
2024/02/06 04:15:09;;;;;;;3.03;1.90;;;2.30;69.50;;;;;;5080581;28;20044;-72
2024/02/06 04:17:36;;;;;;;4.10;2.47;;;2.30;69.80;;;;;;5092503;28;20028;-71
2024/02/06 04:20:02;;;;;;;3.97;2.42;;;2.30;69.00;;;;;;5092582;28;20036;-72
2024/02/06 04:22:28;;;;;;;4.47;2.88;;;2.30;69.50;;;;;;5091680;28;20089;-72
2024/02/06 04:24:54;;;;;;;2.55;1.73;;;2.20;69.30;;;;;;5080276;28;20136;-72
2024/02/06 04:27:20;;;;;;;6.85;2.83;;;2.30;69.40;;;;;;5073546;28;20025;-71
2024/02/06 04:29:46;;;;;;;3.72;1.95;;;2.20;69.10;;;;;;5072469;28;20397;-72
2024/02/06 04:32:13;;;;;;;3.67;1.77;;;2.20;68.90;;;;;;5072437;28;20033;-71
2024/02/06 04:34:39;;;;;;;4.10;2.72;;;2.20;68.80;;;;;;5076610;28;20074;-72
2024/02/06 04:37:05;;;;;;;3.70;2.35;;;2.20;68.70;;;;;;5072807;28;20039;-72
2024/02/06 04:39:31;;;;;;;4.28;2.92;;;2.20;68.70;;;;;;5073031;28;20037;-72
2024/02/06 04:41:57;;;;;;;2.92;1.70;;;2.20;68.80;;;;;;5072411;28;20443;-72
2024/02/06 04:44:23;;;;;;;6.57;3.10;;;2.20;68.90;;;;;;5090759;28;20039;-72
2024/02/06 04:46:49;;;;;;;3.97;1.98;;;2.10;69.00;;;;;;5093309;28;20032;-72
2024/02/06 04:49:15;;;;;;;3.08;1.70;;;2.10;69.30;;;;;;5074689;28;20190;-72
2024/02/06 04:51:41;;;;;;;3.33;2.05;;;2.10;69.20;;;;;;5087449;28;20082;-71
2024/02/06 04:54:07;;;;;;;3.80;2.00;;;2.10;69.80;;;;;;5071693;28;20094;-71
2024/02/06 04:56:33;;;;;;;1.52;1.20;;;2.10;68.80;;;;;;5072122;28;20040;-72
2024/02/06 04:59:00;;;;;;;4.38;1.75;;;2.10;68.50;;;;;;5072058;28;20071;-72
2024/02/06 05:01:27;;;;;;;2.22;1.75;;;2.00;68.70;;;;;;5078406;28;20040;-72
2024/02/06 05:03:52;;;;;;;;;;;2.00;68.90;;;;;;5092434;28;20071;-72
2024/02/06 05:06:18;;;;;;;1.50;1.20;;;2.00;68.70;;;;;;5074291;28;19916;-72
2024/02/06 05:08:44;;;;;;;5.22;2.05;;;2.00;68.90;;;;;;5091361;28;20032;-72
2024/02/06 05:11:12;;;;;;;3.05;1.42;;;2.00;69.00;;;;;;5078987;28;20045;-72
2024/02/06 05:13:39;;;;;;;4.97;2.80;;;2.00;69.30;;;;;;5072283;28;20032;-72
2024/02/06 05:16:07;;;;;;;4.20;2.13;;;2.00;69.60;;;;;;5070832;28;20457;-72
2024/02/06 05:18:33;;;;;;;4.10;2.58;;;2.00;69.70;;;;;;5071250;28;20032;-72
2024/02/06 05:21:00;;;;;;;4.05;2.25;;;2.00;69.90;;;;;;5086302;28;20447;-72
2024/02/06 05:23:26;;;;;;;3.15;1.63;;;1.90;69.20;;;;;;5074469;28;20109;-71
2024/02/06 05:25:53;;;;;;;3.75;1.77;;;1.90;69.60;;;;;;5091196;28;20051;-72
2024/02/06 05:28:20;;;;;;;3.88;1.48;;;1.90;69.50;;;;;;5090634;28;20044;-72
2024/02/06 05:30:46;;;;;;;3.63;1.65;;;1.90;69.30;;;;;;5070278;28;20032;-72
2024/02/06 05:33:12;;;;;;;;;;;1.80;69.40;;;;;;5053687;28;20028;-72
2024/02/06 05:35:38;;;;;;;2.22;1.52;;;1.80;69.60;;;;;;5070597;28;19963;-72
2024/02/06 05:38:04;;;;;;;5.47;2.70;;;1.80;69.60;;;;;;5074606;28;20541;-71
2024/02/06 05:40:30;;;;;;;5.13;2.42;;;1.80;69.50;;;;;;5091551;28;20040;-71
2024/02/06 05:42:56;;;;;;;3.95;1.52;;;1.80;69.60;;;;;;5090529;28;20523;-71
2024/02/06 05:45:22;;;;;;;2.55;1.50;;;1.80;69.70;;;;;;5091979;28;20058;-72
2024/02/06 05:47:48;;;;;;;3.15;2.03;;;1.80;70.10;;;;;;5082641;28;20037;-71
2024/02/06 05:50:14;;;;;;;0.88;0.57;;;1.80;70.40;;;;;;5069660;28;20052;-71
2024/02/06 05:52:40;;;;;;;4.00;2.63;;;1.70;70.10;;;;;;5070139;28;20025;-72
2024/02/06 05:55:07;;;;;;;6.13;3.40;;;1.70;69.60;;;;;;5071616;28;20044;-72
2024/02/06 05:57:34;;;;;;;4.32;3.25;;;1.70;68.80;;;;;;5087407;28;20031;-72
2024/02/06 06:00:03;;;;;;;6.72;3.50;;;1.70;69.80;;;;;;5070277;28;20089;-72
2024/02/06 06:02:29;;;;;;;6.45;2.78;;;1.70;69.80;;;;;;5090001;28;20032;-71
2024/02/06 06:04:55;;;;;;;8.43;3.60;;;1.70;70.00;;;;;;5089854;28;20045;-72
2024/02/06 06:07:21;;;;;;;4.80;3.05;;;1.70;69.80;;;;;;5091395;28;20032;-73
2024/02/06 06:09:47;;;;;;;4.55;3.15;;;1.80;69.80;;;;;;5091601;28;20056;-73
2024/02/06 06:12:13;;;;;;;3.33;2.40;;;1.80;70.00;;;;;;5089503;28;20040;-72
2024/02/06 06:14:39;;;;;;;5.13;2.47;;;1.80;70.10;;;;;;5074557;28;20078;-72
2024/02/06 06:17:05;;;;;;;3.63;1.80;;;1.80;70.20;;;;;;5090098;28;20051;-72
2024/02/06 06:19:31;;;;;;;;;;;1.70;70.40;;;;;;5091759;28;20052;-72
2024/02/06 06:21:57;;;;;;;2.28;1.45;;;1.70;70.60;;;;;;5072661;28;19976;-72
2024/02/06 06:24:23;;;;;;;3.15;1.77;;;1.70;70.20;;;;;;5089867;28;20400;-72
2024/02/06 06:26:49;;;;;;;7.55;1.85;;;1.70;69.80;;;;;;5073219;28;20489;-72
2024/02/06 06:29:15;;;;;;;6.72;3.00;;;1.80;69.60;;;;;;5091209;28;20432;-71
2024/02/06 06:31:41;;;;;;;3.50;1.75;;;1.80;69.60;;;;;;5090526;28;20040;-71
2024/02/06 06:34:08;;;;;;;10.32;2.83;;;1.80;69.90;;;;;;5090003;28;20035;-72
2024/02/06 06:36:34;;;;;;;4.07;2.45;;;1.80;69.90;;;;;;5090106;28;20040;-72
2024/02/06 06:39:00;;;;;;;8.75;4.63;;;1.90;70.20;;;;;;5089893;28;20551;-72
2024/02/06 06:41:26;;;;;;;4.55;2.53;;;1.90;70.20;;;;;;5090500;28;20098;-72
2024/02/06 06:43:52;;;;;;;2.85;2.17;;;1.90;69.30;;;;;;5092053;28;20038;-71
2024/02/06 06:46:19;;;;;;;;;;;2.00;70.00;;;;;;5096029;28;20040;-73
2024/02/06 06:48:45;;;;;;;8.43;4.88;;;2.00;69.90;;;;;;5093618;28;20007;-72
2024/02/06 06:51:11;;;;;;;5.38;4.25;;;2.00;70.00;;;;;;5093762;28;20036;-72
2024/02/06 06:53:37;;;;;;;4.60;3.40;;;2.00;70.10;;;;;;5076852;28;20020;-71
2024/02/06 06:56:03;;;;;;;5.80;4.03;;;2.00;70.20;;;;;;5095131;28;20036;-72
2024/02/06 06:58:29;;;;;;;6.55;3.13;;;2.10;70.20;;;;;;5087642;28;20060;-71
2024/02/06 07:00:56;;;;;;;10.82;6.90;;;2.10;70.40;;;;;;5073517;28;20068;-72
2024/02/06 07:03:21;;;;;;;19.75;10.27;;;2.20;70.20;;;;;;5074856;28;20038;-72
2024/02/06 07:05:52;;;;;;;17.88;8.63;;;2.20;70.30;;;;;;5083011;28;20051;-71
2024/02/06 07:08:18;;;;;;;13.80;7.32;;;2.20;70.30;;;;;;5093076;28;20050;-72
2024/02/06 07:10:44;;;;;;;13.63;8.77;;;2.30;70.20;;;;;;5076029;28;20036;-72
2024/02/06 07:13:10;;;;;;;10.00;6.53;;;2.40;70.10;;;;;;5093412;28;20138;-71
2024/02/06 07:15:36;;;;;;;12.77;7.75;;;2.40;70.30;;;;;;5095168;28;20044;-71
2024/02/06 07:18:02;;;;;;;10.02;5.93;;;2.50;70.50;;;;;;5077641;28;20075;-72
2024/02/06 07:20:28;;;;;;;13.57;5.80;;;2.50;70.50;;;;;;5072424;28;20052;-72
2024/02/06 07:22:54;;;;;;;9.85;4.35;;;2.60;70.60;;;;;;5077325;28;20024;-72
2024/02/06 07:25:20;;;;;;;9.70;6.25;;;2.70;71.50;;;;;;5092919;28;20382;-72
2024/02/06 07:27:46;;;;;;;11.02;6.32;;;2.70;70.60;;;;;;5094613;28;20439;-71
2024/02/06 07:30:13;;;;;;;8.25;5.00;;;2.80;70.20;;;;;;5093911;28;20461;-72
2024/02/06 07:32:40;;;;;;;10.57;5.88;;;2.90;69.50;;;;;;5093056;28;20114;-72
2024/02/06 07:35:08;;;;;;;11.18;5.50;;;3.00;70.00;;;;;;5092819;28;20035;-71
2024/02/06 07:37:34;;;;;;;13.00;7.20;;;3.10;69.60;;;;;;5092705;28;20032;-72
2024/02/06 07:40:00;;;;;;;8.60;4.90;;;3.20;69.70;;;;;;5093826;28;20043;-72
2024/02/06 07:42:27;;;;;;;7.00;4.63;;;3.30;69.90;;;;;;5093515;28;20233;-71
2024/02/06 07:44:52;;;;;;;;;;;3.40;70.00;;;;;;5094885;28;20097;-72
2024/02/06 07:47:19;;;;;;;10.20;6.03;;;3.50;70.00;;;;;;5093786;28;19912;-72
2024/02/06 07:49:45;;;;;;;5.60;3.42;;;3.60;69.50;;;;;;5093924;28;20028;-72
2024/02/06 07:52:11;;;;;;;9.43;4.72;;;3.70;69.50;;;;;;5093553;28;20063;-72
2024/02/06 07:54:38;;;;;;;8.68;4.20;;;3.80;69.60;;;;;;5108739;28;20052;-72
2024/02/06 07:57:06;;;;;;;6.60;3.70;;;3.90;69.50;;;;;;5106666;28;20058;-73
2024/02/06 07:59:32;;;;;;;6.30;4.22;;;4.00;69.10;;;;;;5092698;28;20503;-72
2024/02/06 08:01:58;;;;;;;8.07;5.47;;;4.10;70.80;;;;;;5091885;28;20036;-72
2024/02/06 08:04:24;;;;;;;12.00;7.50;;;4.20;71.60;;;;;;5092574;28;20040;-72
2024/02/06 08:06:50;;;;;;;6.15;3.92;;;4.30;72.50;;;;;;5092770;28;20040;-71
2024/02/06 08:09:18;;;;;;;7.70;4.90;;;4.30;73.10;;;;;;5092603;28;20051;-72
2024/02/06 08:11:44;;;;;;;8.52;3.55;;;4.40;72.10;;;;;;5092894;28;20044;-72
2024/02/06 08:14:12;;;;;;;;;;;4.60;71.20;;;;;;5092855;28;20043;-71
2024/02/06 08:16:57;;;;;;;12.18;4.82;;;4.70;71.60;;;;;;5092188;28;19912;-71
2024/02/06 08:19:23;;;;;;;5.60;3.67;;;4.80;71.60;;;;;;5092333;28;20374;-72
2024/02/06 08:21:50;;;;;;;11.60;5.00;;;4.90;72.00;;;;;;5092869;28;20086;-72
2024/02/06 08:24:16;;;;;;;;;;;5.10;71.90;;;;;;5092613;28;20052;-72
2024/02/06 08:26:42;;;;;;;8.15;4.05;;;5.30;72.00;;;;;;5091947;28;20019;-72
2024/02/06 08:29:08;;;;;;;12.13;4.07;;;5.50;72.10;;;;;;5070788;28;20132;-72
2024/02/06 08:31:34;;;;;;;3.47;1.95;;;5.60;71.80;;;;;;5080271;28;20032;-72
2024/02/06 08:34:00;;;;;;;;;;;5.80;71.70;;;;;;5092435;28;20614;-72
2024/02/06 08:36:26;;;;;;;10.35;5.30;;;5.90;71.70;;;;;;5074993;28;19955;-72
2024/02/06 08:38:52;;;;;;;4.35;2.92;;;6.20;71.80;;;;;;5093154;28;20041;-72
2024/02/06 08:41:18;;;;;;;5.97;2.97;;;6.40;70.70;;;;;;5091209;28;20102;-72
2024/02/06 08:43:44;;;;;;;38.55;4.45;;;6.60;70.30;;;;;;5093078;28;20077;-72
2024/02/06 08:46:11;;;;;;;4.93;1.45;;;6.80;69.90;;;;;;5081687;28;20071;-72
2024/02/06 08:48:38;;;;;;;4.95;3.55;;;7.10;70.30;;;;;;5070979;28;20050;-72
2024/02/06 08:51:04;;;;;;;4.68;2.10;;;8.00;69.30;;;;;;5053861;28;20052;-72
2024/02/06 08:53:30;;;;;;;;;;;9.60;63.50;;;;;;5073376;28;20028;-72
2024/02/06 08:55:59;;;;;;;2.30;1.05;;;10.80;62.50;;;;;;5071376;28;19923;-72
2024/02/06 08:58:25;;;;;;;1.52;1.13;;;11.80;58.70;;;;;;5071249;28;20056;-72
2024/02/06 09:00:51;;;;;;;1.63;1.10;;;12.30;56.70;;;;;;5071933;28;20467;-72
2024/02/06 09:03:17;;;;;;;1.48;1.38;;;12.90;55.50;;;;;;5054329;28;20033;-72
2024/02/06 09:05:44;;;;;;;2.75;1.95;;;13.60;54.60;;;;;;5054337;28;20066;-72
2024/02/06 09:08:10;;;;;;;2.58;1.55;;;14.40;52.10;;;;;;5054550;28;20032;-72
2024/02/06 09:10:37;;;;;;;1.38;0.75;;;14.70;51.60;;;;;;5053547;28;20086;-73
2024/02/06 09:13:03;;;;;;;1.10;1.00;;;14.80;51.00;;;;;;5072156;28;20037;-71
2024/02/06 09:15:30;;;;;;;7.93;1.40;;;14.90;50.80;;;;;;5072015;28;20033;-72
2024/02/06 09:17:56;;;;;;;2.63;1.58;;;14.80;50.40;;;;;;5070637;28;20029;-72
2024/02/06 09:20:22;;;;;;;;;;;15.00;49.10;;;;;;5070722;28;20121;-72
2024/02/06 09:22:49;;;;;;;4.28;1.55;;;15.60;49.20;;;;;;5053713;28;20322;-72
2024/02/06 09:25:16;;;;;;;;;;;16.20;46.80;;;;;;5072191;28;20052;-73
2024/02/06 09:30:27;;;;;;;6.88;1.58;;;17.10;44.50;;;;;;5071481;28;20043;-72
2024/02/06 09:32:53;;;;;;;1.67;0.95;;;17.00;44.80;;;;;;5070537;28;20028;-72
2024/02/06 09:35:19;;;;;;;2.50;1.60;;;16.80;45.40;;;;;;5053715;28;20032;-72
2024/02/06 09:37:45;;;;;;;2.15;1.70;;;17.20;43.70;;;;;;5071830;28;20037;-72
2024/02/06 09:40:11;;;;;;;2.28;1.02;;;17.10;42.90;;;;;;5069747;28;20094;-72
2024/02/06 09:42:37;;;;;;;1.20;0.93;;;17.20;42.80;;;;;;5070336;28;20036;-71
2024/02/06 09:45:04;;;;;;;1.52;1.02;;;17.30;42.80;;;;;;5071644;28;20051;-72
2024/02/06 09:47:31;;;;;;;3.03;1.30;;;17.30;42.30;;;;;;5070197;28;20404;-71
2024/02/06 09:49:57;;;;;;;3.25;2.15;;;17.50;41.90;;;;;;5071507;28;20040;-72
2024/02/06 09:52:25;;;;;;;4.90;3.10;;;17.40;41.90;;;;;;5069747;28;20040;-71
2024/02/06 09:54:52;;;;;;;2.28;1.15;;;17.10;42.40;;;;;;5053680;28;20050;-71
2024/02/06 09:57:21;;;;;;;1.45;1.05;;;17.00;42.30;;;;;;5070210;28;20077;-71
2024/02/06 10:00:07;;;;;;;1.13;1.02;;;16.90;42.40;;;;;;5071280;28;20044;-71
2024/02/06 10:02:38;;;;;;;9.18;1.23;;;17.20;42.50;;;;;;5069852;28;20044;-71
2024/02/06 10:05:05;;;;;;;1.08;0.88;;;16.80;43.30;;;;;;5070092;28;20033;-72
2024/02/06 10:07:32;;;;;;;1.15;0.65;;;16.50;44.40;;;;;;5069913;28;20032;-71
2024/02/06 10:09:59;;;;;;;1.77;0.88;;;16.50;44.90;;;;;;5071244;28;20154;-71
2024/02/06 10:12:26;;;;;;;0.35;0.35;;;16.60;43.70;;;;;;5070531;28;20040;-72
2024/02/06 10:14:52;;;;;;;1.13;0.50;;;17.10;42.90;;;;;;5070016;28;20357;-71
2024/02/06 10:17:18;;;;;;;8.93;1.38;;;17.00;43.10;;;;;;5070410;28;20029;-71
2024/02/06 10:19:44;;;;;;;4.93;0.95;;;16.90;43.00;;;;;;5069742;28;20051;-70
2024/02/06 10:22:12;;;;;;;0.52;0.32;;;17.10;40.60;;;;;;5070241;28;20071;-71
2024/02/06 10:24:40;;;;;;;1.67;0.55;;;17.30;41.00;;;;;;5069770;28;20060;-71
2024/02/06 10:27:06;;;;;;;1.27;0.22;;;17.30;40.40;;;;;;5069542;28;20036;-71
2024/02/06 10:29:33;;;;;;;0.50;0.30;;;17.20;40.90;;;;;;5069576;28;20057;-71
2024/02/06 10:31:59;;;;;;;0.73;0.60;;;17.20;39.70;;;;;;5070120;28;20033;-72
2024/02/06 10:34:27;;;;;;;2.30;1.10;;;17.30;39.30;;;;;;5070011;28;20039;-71
2024/02/06 10:37:14;;;;;;;1.13;0.68;;;17.30;39.30;;;;;;5052817;28;20037;-72
2024/02/06 10:39:40;;;;;;;0.85;0.60;;;17.70;39.20;;;;;;5071174;28;20020;-72
2024/02/06 10:42:06;;;;;;;5.00;1.27;;;17.70;38.40;;;;;;5068879;28;20033;-71
2024/02/06 10:44:33;;;;;;;1.55;1.17;;;17.50;40.10;;;;;;5052894;28;20029;-71
2024/02/06 10:46:59;;;;;;;;;;;17.80;38.50;;;;;;5069891;28;20044;-72
2024/02/06 10:49:26;;;;;;;1.15;0.40;;;18.20;37.40;;;;;;5070704;28;19912;-72
2024/02/06 10:52:19;;;;;;;1.85;1.40;;;18.40;38.40;;;;;;5068828;28;20075;-71
2024/02/06 10:54:45;;;;;;;1.00;0.85;;;18.60;36.50;;;;;;5070840;28;20017;-72
2024/02/06 10:57:16;;;;;;;0.43;0.40;;;18.60;35.50;;;;;;5070654;28;20033;-72
2024/02/06 11:00:22;;;;;;;0.30;0.30;;;18.50;36.70;;;;;;5069440;28;20130;-72
2024/02/06 11:03:09;;;;;;;1.23;0.95;;;18.20;36.40;;;;;;5069109;28;20040;-71
2024/02/06 11:06:02;;;;;;;1.27;0.68;;;18.10;37.00;;;;;;5052812;28;20040;-71
2024/02/06 11:08:35;;;;;;;0.47;0.30;;;18.30;36.80;;;;;;5069515;28;20077;-71
2024/02/06 11:11:02;;;;;;;0.57;0.50;;;18.30;36.60;;;;;;5069980;28;20037;-72
2024/02/06 11:13:50;;;;;;;1.27;0.40;;;18.40;36.90;;;;;;5069483;28;20067;-71
2024/02/06 11:16:20;;;;;;;1.13;0.68;;;18.50;36.30;;;;;;5069366;28;20029;-72
2024/02/06 11:19:45;;;;;;;1.15;0.60;;;18.80;35.10;;;;;;5069055;28;20044;-71
2024/02/06 11:22:36;;;;;;;0.47;0.47;;;19.00;34.10;;;;;;5069892;28;20418;-71
2024/02/06 11:25:03;;;;;;;0.88;0.80;;;19.40;34.00;;;;;;5052689;28;20074;-71
2024/02/06 11:27:31;;;;;;;0.32;0.28;;;19.80;32.40;;;;;;5052423;28;20048;-72
2024/02/06 11:29:57;;;;;;;0.32;0.20;;;19.80;33.10;;;;;;5054744;28;20040;-71
2024/02/06 11:32:23;;;;;;;0.30;0.30;;;19.80;33.20;;;;;;5055320;28;20098;-71
2024/02/06 11:37:36;;;;;;;0.55;0.45;;;19.30;33.20;;;;;;5072977;28;20112;-71
2024/02/06 11:40:25;;;;;;;3.88;0.45;;;19.60;32.50;;;;;;5074092;28;20090;-72
2024/02/06 11:43:24;;;;;;;2.28;0.43;;;20.10;31.90;;;;;;5072134;28;20144;-72
2024/02/06 11:46:01;;;;;;;0.57;0.40;;;20.60;30.50;;;;;;5072745;28;20481;-71
2024/02/06 11:48:27;;;;;;;0.35;0.30;;;19.80;32.30;;;;;;5072475;28;20490;-71
2024/02/06 11:50:53;;;;;;;0.93;0.82;;;19.40;33.10;;;;;;5071836;28;20045;-72
2024/02/06 11:53:43;;;;;;;1.48;0.52;;;19.20;34.40;;;;;;5073630;28;20024;-72
2024/02/06 11:56:09;;;;;;;0.20;0.20;;;19.40;32.70;;;;;;5072493;28;20040;-71
2024/02/06 11:58:36;;;;;;;;;;;19.60;33.00;;;;;;5072982;28;20028;-71
2024/02/06 12:01:06;;;;;;;0.80;0.75;;;19.30;32.90;;;;;;5071453;28;19920;-72
2024/02/06 12:03:32;;;;;;;0.52;0.35;;;19.10;33.10;;;;;;5072454;28;20399;-71
2024/02/06 12:05:58;;;;;;;4.30;1.90;;;19.30;33.40;;;;;;5072222;28;20049;-71
2024/02/06 12:08:27;;;;;;;0.32;0.32;;;19.50;33.30;;;;;;5055565;28;20063;-71
2024/02/06 12:11:20;;;;;;;0.47;0.40;;;19.30;33.60;;;;;;5073012;28;20036;-71
2024/02/06 12:13:52;;;;;;;1.00;0.55;;;19.20;33.20;;;;;;5072289;28;20078;-72
2024/02/06 12:16:18;;;;;;;1.00;0.30;;;19.30;33.20;;;;;;5071994;28;20033;-72
2024/02/06 12:18:50;;;;;;;1.50;0.98;;;19.50;31.80;;;;;;5071921;28;20119;-71
2024/02/06 12:21:35;;;;;;;1.33;0.30;;;19.40;33.10;;;;;;5071304;28;20440;-71
2024/02/06 12:24:13;;;;;;;0.55;0.50;;;19.10;33.60;;;;;;5072995;28;20059;-72
2024/02/06 12:26:39;;;;;;;0.88;0.77;;;19.00;33.60;;;;;;5071921;28;20064;-72
2024/02/06 12:29:07;;;;;;;0.63;0.50;;;19.00;33.40;;;;;;5071868;28;20020;-72
2024/02/06 12:31:36;;;;;;;0.50;0.50;;;19.30;33.20;;;;;;5072710;28;20135;-72
2024/02/06 12:36:51;;;;;;;0.20;0.20;;;19.50;32.60;;;;;;5072844;28;20033;-72
2024/02/06 12:39:18;;;;;;;3.10;0.80;;;19.70;32.50;;;;;;5072877;28;20037;-71
2024/02/06 12:41:44;;;;;;;1.52;0.65;;;20.00;31.70;;;;;;5053570;28;20531;-72
2024/02/06 12:44:10;;;;;;;1.30;0.90;;;19.80;31.60;;;;;;5072820;28;20433;-72
2024/02/06 12:46:36;;;;;;;0.70;0.43;;;19.60;32.20;;;;;;5071579;28;20033;-71
2024/02/06 12:49:03;;;;;;;1.00;0.80;;;19.50;32.20;;;;;;5071354;28;20025;-71
2024/02/06 12:51:29;;;;;;;0.45;0.30;;;19.50;32.40;;;;;;5070657;28;20528;-71
2024/02/06 12:53:55;;;;;;;;;;;19.60;32.70;;;;;;5071998;28;20044;-72
2024/02/06 12:56:25;;;;;;;4.20;1.88;;;20.00;31.70;;;;;;5071356;28;19917;-72
2024/02/06 12:58:51;;;;;;;0.85;0.52;;;20.50;30.10;;;;;;5072482;28;20033;-72
2024/02/06 13:01:22;;;;;;;;;;;20.60;31.00;;;;;;5071012;28;20047;-71
2024/02/06 13:04:33;;;;;;;1.05;0.80;;;20.40;30.30;;;;;;5071490;28;19959;-71
2024/02/06 13:06:59;;;;;;;1.52;1.00;;;20.50;31.10;;;;;;5072209;28;20071;-71
2024/02/06 13:09:44;;;;;;;0.65;0.40;;;20.80;30.70;;;;;;5072430;28;20032;-72
2024/02/06 13:12:10;;;;;;;0.55;0.30;;;20.80;30.70;;;;;;5071598;28;20110;-72